Time;durP1;ratioP1;P1;durP2;ratioP2;P2;SDS_P1;SDS_P2;PMS_P1;PMS_P2;Temp;Humidity;BMP_temperature;BMP_pressure;BME280_temperature;BME280_humidity;BME280_pressure;Samples;Min_cycle;Max_cycle;Signal;HPM_P1;HPM_P2
2021/09/15 00:00:27;;;;;;;61.53;55.00;;;17.70;99.90;;;;;;4399076;32;20163;-66
2021/09/15 00:02:54;;;;;;;60.73;53.87;;;17.70;99.90;;;;;;4406110;32;20168;-66
2021/09/15 00:05:20;;;;;;;56.27;50.60;;;17.70;99.90;;;;;;4405816;32;20152;-67
2021/09/15 00:07:47;;;;;;;60.03;53.73;;;17.70;99.90;;;;;;4406011;32;20143;-69
2021/09/15 00:10:14;;;;;;;55.10;49.23;;;17.70;99.90;;;;;;4405065;32;20570;-66
2021/09/15 00:12:41;;;;;;;58.03;52.07;;;17.60;99.90;;;;;;4406398;32;20163;-66
2021/09/15 00:15:10;;;;;;;58.87;52.50;;;17.60;99.90;;;;;;4391612;32;20199;-66
2021/09/15 00:17:37;;;;;;;54.13;48.53;;;17.60;99.90;;;;;;4390703;32;20190;-66
2021/09/15 00:20:05;;;;;;;54.63;49.13;;;17.60;99.90;;;;;;4403064;32;20151;-66
2021/09/15 00:22:32;;;;;;;55.97;50.37;;;17.60;99.90;;;;;;4406509;32;20164;-65
2021/09/15 00:24:58;;;;;;;61.60;55.00;;;17.60;99.90;;;;;;4407052;32;20215;-69
2021/09/15 00:27:25;;;;;;;54.40;48.53;;;17.70;99.90;;;;;;4404540;32;20155;-69
2021/09/15 00:29:52;;;;;;;61.23;54.53;;;17.60;99.90;;;;;;4405703;32;20144;-70
2021/09/15 00:32:20;;;;;;;55.93;50.17;;;17.60;99.90;;;;;;4400012;32;20183;-66
2021/09/15 00:34:47;;;;;;;54.43;48.67;;;17.60;99.90;;;;;;4392154;32;20163;-70
2021/09/15 00:37:14;;;;;;;54.77;48.83;;;17.60;99.90;;;;;;4392375;32;20151;-66
2021/09/15 00:39:41;;;;;;;54.80;49.03;;;17.70;99.90;;;;;;4392242;32;20219;-68
2021/09/15 00:42:08;;;;;;;53.63;47.90;;;17.70;99.90;;;;;;4395358;32;20212;-67
2021/09/15 00:44:35;;;;;;;52.37;47.17;;;17.70;99.90;;;;;;4405602;32;20215;-66
2021/09/15 00:47:02;;;;;;;50.80;45.50;;;17.70;99.90;;;;;;4403416;32;20487;-69
2021/09/15 00:49:30;;;;;;;49.87;44.50;;;17.70;99.90;;;;;;4390671;32;20822;-66
2021/09/15 00:51:57;;;;;;;46.73;41.73;;;17.70;99.90;;;;;;4309289;32;2749077;-67
2021/09/15 00:54:24;;;;;;;48.13;43.17;;;17.70;99.90;;;;;;4406169;32;20220;-68
2021/09/15 00:56:51;;;;;;;48.70;43.20;;;17.70;99.90;;;;;;4404668;32;20174;-65
2021/09/15 00:59:18;;;;;;;50.77;45.37;;;17.70;99.90;;;;;;4404991;32;20566;-66
2021/09/15 01:01:45;;;;;;;48.40;43.40;;;17.70;99.90;;;;;;4405824;32;20200;-65
2021/09/15 01:04:12;;;;;;;49.77;44.40;;;17.70;99.90;;;;;;4406998;32;20227;-68
2021/09/15 01:06:41;;;;;;;48.20;42.97;;;17.70;99.90;;;;;;4407368;32;20174;-65
2021/09/15 01:09:09;;;;;;;47.73;43.03;;;17.60;99.90;;;;;;4402700;32;20206;-65
2021/09/15 01:11:38;;;;;;;45.80;41.07;;;17.60;99.90;;;;;;4407640;32;20171;-65
2021/09/15 01:14:05;;;;;;;45.07;40.47;;;17.60;99.90;;;;;;4392096;32;20182;-68
2021/09/15 01:16:47;;;;;;;46.53;41.67;;;17.50;99.90;;;;;;4390046;32;20168;-64
2021/09/15 01:19:14;;;;;;;44.27;39.70;;;17.50;99.90;;;;;;4392988;32;20167;-65
2021/09/15 01:21:42;;;;;;;46.70;42.13;;;17.50;99.90;;;;;;4392406;32;20534;-65
2021/09/15 01:24:09;;;;;;;44.40;39.83;;;17.50;99.90;;;;;;4390143;32;20219;-67
2021/09/15 01:26:36;;;;;;;47.43;42.70;;;17.50;99.90;;;;;;4390911;32;20156;-65
2021/09/15 01:29:04;;;;;;;47.33;42.43;;;17.60;99.90;;;;;;4390779;32;20190;-66
2021/09/15 01:31:31;;;;;;;45.70;41.10;;;17.60;99.90;;;;;;4390446;32;20167;-66
2021/09/15 01:33:58;;;;;;;47.10;42.07;;;17.50;99.90;;;;;;4401242;32;20211;-68
2021/09/15 01:36:25;;;;;;;43.27;38.97;;;17.50;99.90;;;;;;4406302;32;20675;-67
2021/09/15 01:38:53;;;;;;;45.90;41.07;;;17.50;99.90;;;;;;4403919;32;20178;-68
2021/09/15 01:41:20;;;;;;;45.50;40.80;;;17.50;99.90;;;;;;4406482;32;20167;-66
2021/09/15 01:43:50;;;;;;;44.50;40.20;;;17.50;99.90;;;;;;4396804;32;20157;-68
2021/09/15 01:46:17;;;;;;;42.53;37.97;;;17.50;99.90;;;;;;4391062;32;20275;-64
2021/09/15 01:48:44;;;;;;;46.10;41.47;;;17.40;99.90;;;;;;4390829;32;20163;-69
2021/09/15 01:51:11;;;;;;;44.37;40.13;;;17.40;99.90;;;;;;4405749;32;20645;-66
2021/09/15 01:53:38;;;;;;;43.23;39.17;;;17.40;99.90;;;;;;4405391;32;20167;-66
2021/09/15 01:56:06;;;;;;;44.03;39.73;;;17.40;99.90;;;;;;4404904;32;20151;-65
2021/09/15 01:58:33;;;;;;;42.07;37.93;;;17.30;99.90;;;;;;4392562;32;20618;-65
2021/09/15 02:00:59;;;;;;;40.53;36.53;;;17.30;99.90;;;;;;4396434;32;20151;-65
2021/09/15 02:03:26;;;;;;;43.47;39.27;;;17.30;99.90;;;;;;4410128;32;20166;-66
2021/09/15 02:05:53;;;;;;;39.30;35.50;;;17.20;99.90;;;;;;4405899;32;20441;-66
2021/09/15 02:08:20;;;;;;;42.40;38.27;;;17.20;99.90;;;;;;4392880;32;20184;-65
2021/09/15 02:10:47;;;;;;;40.27;36.23;;;17.10;99.90;;;;;;4393701;32;20230;-65
2021/09/15 02:13:15;;;;;;;39.20;35.40;;;17.10;99.90;;;;;;4392825;32;20172;-66
2021/09/15 02:15:42;;;;;;;41.30;37.23;;;17.00;99.90;;;;;;4393862;32;20190;-66
2021/09/15 02:18:09;;;;;;;34.80;31.37;;;17.00;99.90;;;;;;4392887;32;20598;-67
2021/09/15 02:20:36;;;;;;;37.83;34.13;;;17.00;99.90;;;;;;4394582;32;20515;-66
2021/09/15 02:23:03;;;;;;;37.67;34.10;;;17.10;99.90;;;;;;4393248;32;20148;-66
2021/09/15 02:25:30;;;;;;;36.93;33.53;;;17.00;99.90;;;;;;4393211;32;20160;-66
2021/09/15 02:27:58;;;;;;;39.13;35.00;;;17.00;99.90;;;;;;4392890;32;20147;-66
2021/09/15 02:30:26;;;;;;;37.90;34.40;;;17.00;99.90;;;;;;4402803;32;20178;-67
2021/09/15 02:32:53;;;;;;;39.77;35.97;;;17.00;99.90;;;;;;4408208;32;20167;-65
2021/09/15 02:35:20;;;;;;;39.40;35.57;;;16.90;99.90;;;;;;4406844;32;20158;-65
2021/09/15 02:37:50;;;;;;;36.30;32.67;;;16.90;99.90;;;;;;4408896;32;20591;-66
2021/09/15 02:40:17;;;;;;;36.87;33.30;;;16.80;99.90;;;;;;4400650;32;20669;-66
2021/09/15 02:42:43;;;;;;;38.57;34.83;;;16.80;99.90;;;;;;4392526;32;20170;-67
2021/09/15 02:45:11;;;;;;;37.33;33.73;;;16.70;99.90;;;;;;4393484;32;20160;-67
2021/09/15 02:47:39;;;;;;;37.70;33.93;;;16.70;99.90;;;;;;4392742;32;20222;-68
2021/09/15 02:50:06;;;;;;;37.73;33.73;;;16.70;99.90;;;;;;4397853;32;20611;-65
2021/09/15 02:52:34;;;;;;;35.37;32.00;;;16.70;99.90;;;;;;4407549;32;20183;-65
2021/09/15 02:55:01;;;;;;;39.03;35.03;;;16.70;99.90;;;;;;4405893;32;20592;-69
2021/09/15 02:57:28;;;;;;;37.00;33.03;;;16.70;99.90;;;;;;4394309;32;20198;-65
2021/09/15 02:59:54;;;;;;;36.90;33.43;;;16.70;99.90;;;;;;4395213;32;20194;-69
2021/09/15 03:02:21;;;;;;;36.07;32.63;;;16.60;99.90;;;;;;4409354;32;20572;-67
2021/09/15 03:04:49;;;;;;;36.17;32.63;;;16.60;99.90;;;;;;4405035;32;20182;-68
2021/09/15 03:07:16;;;;;;;37.40;34.00;;;16.60;99.90;;;;;;4392417;32;20223;-66
2021/09/15 03:09:43;;;;;;;35.47;31.93;;;16.60;99.90;;;;;;4393060;32;20579;-67
2021/09/15 03:12:10;;;;;;;37.63;33.93;;;16.60;99.90;;;;;;4408542;32;20490;-65
2021/09/15 03:14:37;;;;;;;36.13;32.67;;;16.60;99.90;;;;;;4407552;32;20160;-67
2021/09/15 03:17:04;;;;;;;36.43;32.70;;;16.60;99.90;;;;;;4393362;32;20172;-65
2021/09/15 03:19:31;;;;;;;34.00;30.50;;;16.60;99.90;;;;;;4393979;32;20584;-65
2021/09/15 03:21:59;;;;;;;38.00;34.27;;;16.70;99.90;;;;;;4405987;32;20186;-68
2021/09/15 03:24:26;;;;;;;37.63;33.77;;;16.70;99.90;;;;;;4405942;32;20179;-66
2021/09/15 03:26:53;;;;;;;36.67;30.70;;;16.80;99.90;;;;;;4400916;32;20463;-67
2021/09/15 03:29:19;;;;;;;38.90;32.53;;;16.80;99.90;;;;;;4398507;32;20207;-65
2021/09/15 03:31:46;;;;;;;37.30;31.60;;;16.90;99.90;;;;;;4409083;32;20595;-67
2021/09/15 03:34:13;;;;;;;37.93;31.80;;;16.90;99.90;;;;;;4406761;32;20194;-66
2021/09/15 03:36:40;;;;;;;49.33;37.67;;;16.90;99.90;;;;;;4406529;32;20590;-66
2021/09/15 03:39:08;;;;;;;39.33;34.13;;;16.80;99.90;;;;;;4402454;32;20176;-67
2021/09/15 03:41:35;;;;;;;45.20;36.27;;;16.80;99.90;;;;;;4392276;32;20462;-65
2021/09/15 03:44:02;;;;;;;38.87;33.83;;;16.80;99.90;;;;;;4393351;32;20219;-65
2021/09/15 03:46:28;;;;;;;39.80;35.13;;;16.80;99.90;;;;;;4393368;32;20167;-66
2021/09/15 03:48:55;;;;;;;42.77;35.07;;;16.90;99.90;;;;;;4395634;32;20179;-65
2021/09/15 03:51:22;;;;;;;42.60;36.57;;;16.90;99.90;;;;;;4406311;32;20214;-65
2021/09/15 03:53:49;;;;;;;41.83;33.90;;;17.00;99.90;;;;;;4405038;32;20167;-65
2021/09/15 03:56:17;;;;;;;41.67;35.00;;;17.00;99.90;;;;;;4406780;32;20245;-67
2021/09/15 03:58:44;;;;;;;40.27;34.37;;;17.00;99.90;;;;;;4406299;32;20152;-65
2021/09/15 04:01:11;;;;;;;37.50;33.03;;;17.10;99.90;;;;;;4393521;32;20225;-68
2021/09/15 04:03:38;;;;;;;42.37;34.50;;;17.10;99.90;;;;;;4391695;32;20151;-68
2021/09/15 04:06:05;;;;;;;40.27;35.23;;;17.10;99.90;;;;;;4392132;32;20327;-67
2021/09/15 04:08:32;;;;;;;41.23;34.10;;;17.10;99.90;;;;;;4391017;32;20172;-67
2021/09/15 04:10:59;;;;;;;40.67;34.40;;;17.10;99.90;;;;;;4402965;32;20239;-68
2021/09/15 04:13:27;;;;;;;40.93;33.10;;;17.10;99.90;;;;;;4407013;32;20167;-65
2021/09/15 04:15:54;;;;;;;35.97;32.17;;;17.10;99.90;;;;;;4395475;32;20219;-68
2021/09/15 04:18:21;;;;;;;37.57;33.57;;;17.10;99.90;;;;;;4391619;32;20172;-65
2021/09/15 04:20:49;;;;;;;36.10;32.07;;;17.10;99.90;;;;;;4391544;32;20152;-68
2021/09/15 04:23:18;;;;;;;36.87;32.97;;;17.10;99.90;;;;;;4391611;32;20505;-68
2021/09/15 04:31:21;;;;;;;34.20;30.60;;;17.20;99.90;;;;;;4406487;32;20178;-65
2021/09/15 04:33:47;;;;;;;35.00;31.37;;;17.20;99.90;;;;;;4406655;32;20147;-65
2021/09/15 04:36:14;;;;;;;36.77;31.83;;;17.20;99.90;;;;;;4393128;32;20198;-68
2021/09/15 04:38:41;;;;;;;34.67;31.17;;;17.20;99.90;;;;;;4391723;32;20160;-65
2021/09/15 04:41:08;;;;;;;33.20;29.70;;;17.20;99.90;;;;;;4390962;32;20164;-65
2021/09/15 04:43:42;;;;;;;34.33;30.80;;;17.30;99.90;;;;;;4394726;32;20170;-65
2021/09/15 04:46:12;;;;;;;31.53;28.17;;;17.30;99.90;;;;;;4406871;32;20147;-68
2021/09/15 04:48:40;;;;;;;34.23;31.00;;;17.30;99.90;;;;;;4405909;32;20157;-66
2021/09/15 04:51:07;;;;;;;32.17;28.83;;;17.40;99.90;;;;;;4405475;32;20175;-64
2021/09/15 04:53:35;;;;;;;33.70;30.30;;;17.40;99.90;;;;;;4405092;32;20211;-65
2021/09/15 04:56:01;;;;;;;33.57;30.03;;;17.40;99.90;;;;;;4391001;32;20164;-65
2021/09/15 04:58:28;;;;;;;37.93;32.43;;;17.40;99.90;;;;;;4391582;32;20164;-65
2021/09/15 05:00:57;;;;;;;32.87;29.27;;;17.30;99.90;;;;;;4398837;32;20156;-65
2021/09/15 05:03:27;;;;;;;34.53;30.37;;;17.40;99.90;;;;;;4407424;32;20512;-65
2021/09/15 05:06:58;;;;;;;33.83;30.20;;;17.40;99.90;;;;;;4404436;32;20147;-66
2021/09/15 05:09:27;;;;;;;33.77;30.23;;;17.40;99.90;;;;;;4396240;32;20190;-65
2021/09/15 05:11:59;;;;;;;36.07;31.30;;;17.40;99.90;;;;;;4394382;32;20201;-67
2021/09/15 05:14:28;;;;;;;33.33;29.87;;;17.40;99.90;;;;;;4397428;32;20159;-65
2021/09/15 05:16:59;;;;;;;32.77;29.27;;;17.40;99.90;;;;;;4392194;32;20206;-67
2021/09/15 05:19:26;;;;;;;32.63;29.20;;;17.40;99.90;;;;;;4396997;32;20175;-65
2021/09/15 05:21:55;;;;;;;35.93;32.13;;;17.40;99.90;;;;;;4399233;32;20198;-65
2021/09/15 05:24:22;;;;;;;32.70;29.43;;;17.40;99.90;;;;;;4406036;32;20171;-66
2021/09/15 05:26:48;;;;;;;33.40;30.13;;;17.40;99.90;;;;;;4405417;32;20144;-66
2021/09/15 05:29:15;;;;;;;33.60;30.10;;;17.50;99.90;;;;;;4402399;32;20495;-65
2021/09/15 05:31:42;;;;;;;33.00;29.80;;;17.60;99.90;;;;;;4397782;32;20222;-65
2021/09/15 05:34:10;;;;;;;32.67;29.53;;;17.50;99.90;;;;;;4396243;32;20580;-66
2021/09/15 05:36:37;;;;;;;33.63;30.43;;;17.60;99.90;;;;;;4398128;32;20175;-65
2021/09/15 05:39:04;;;;;;;32.40;29.10;;;17.60;99.90;;;;;;4397931;32;20176;-66
2021/09/15 05:41:31;;;;;;;31.70;28.97;;;17.60;99.90;;;;;;4399626;32;20191;-63
2021/09/15 05:43:58;;;;;;;31.97;28.90;;;17.60;99.90;;;;;;4397915;32;20509;-65
2021/09/15 05:46:25;;;;;;;32.70;29.60;;;17.70;99.90;;;;;;4399312;32;20155;-65
2021/09/15 05:48:51;;;;;;;33.30;30.07;;;17.70;99.90;;;;;;4396801;32;20203;-65
2021/09/15 05:51:20;;;;;;;31.37;28.30;;;17.70;99.90;;;;;;4396199;32;20632;-65
2021/09/15 05:53:46;;;;;;;31.07;28.03;;;17.70;99.90;;;;;;4396146;32;20222;-65
2021/09/15 05:56:13;;;;;;;32.20;29.07;;;17.80;99.90;;;;;;4398074;32;20156;-66
2021/09/15 05:58:40;;;;;;;31.93;28.97;;;17.80;99.90;;;;;;4396637;32;20179;-67
2021/09/15 06:01:07;;;;;;;30.87;27.90;;;17.80;99.90;;;;;;4395919;32;20164;-65
2021/09/15 06:03:34;;;;;;;32.13;29.10;;;17.90;99.90;;;;;;4397463;32;20202;-65
2021/09/15 06:06:01;;;;;;;33.10;30.00;;;17.80;99.90;;;;;;4394054;32;20198;-65
2021/09/15 06:08:29;;;;;;;34.23;30.97;;;17.90;99.90;;;;;;4394600;32;20168;-67
2021/09/15 06:10:56;;;;;;;33.57;30.40;;;17.90;99.90;;;;;;4397823;32;20179;-67
2021/09/15 06:13:23;;;;;;;34.33;30.13;;;17.90;99.90;;;;;;4394681;32;20155;-67
2021/09/15 06:15:50;;;;;;;36.00;32.27;;;17.90;99.90;;;;;;4393499;32;20464;-65
2021/09/15 06:18:17;;;;;;;34.67;31.27;;;18.00;99.90;;;;;;4396014;32;20615;-65
2021/09/15 06:20:45;;;;;;;33.87;30.53;;;18.00;99.90;;;;;;4394709;32;20168;-65
2021/09/15 06:23:14;;;;;;;35.40;32.00;;;18.10;99.90;;;;;;4396494;32;20183;-65
2021/09/15 06:25:43;;;;;;;34.63;31.07;;;18.20;99.90;;;;;;4397335;32;20482;-65
2021/09/15 06:28:12;;;;;;;36.93;33.23;;;18.30;99.90;;;;;;4397899;32;20555;-67
2021/09/15 06:30:40;;;;;;;38.47;32.97;;;18.30;99.90;;;;;;4404198;32;20155;-65
2021/09/15 06:33:07;;;;;;;34.37;31.07;;;18.30;99.90;;;;;;4406771;32;20171;-66
2021/09/15 06:35:34;;;;;;;34.70;31.03;;;18.40;99.90;;;;;;4405900;32;20539;-66
2021/09/15 06:38:04;;;;;;;34.80;31.37;;;18.60;99.90;;;;;;4404467;32;20151;-65
2021/09/15 06:40:31;;;;;;;34.23;30.87;;;18.60;99.90;;;;;;4404447;32;20198;-65
2021/09/15 06:42:59;;;;;;;33.47;30.17;;;18.70;99.90;;;;;;4406874;32;20199;-67
2021/09/15 06:45:26;;;;;;;31.77;28.97;;;18.80;99.90;;;;;;4407237;32;20175;-65
2021/09/15 06:47:53;;;;;;;33.93;30.67;;;18.90;99.90;;;;;;4409197;32;20171;-65
2021/09/15 06:50:20;;;;;;;38.00;34.33;;;18.90;99.90;;;;;;4408964;32;20152;-65
2021/09/15 06:52:47;;;;;;;39.77;36.00;;;19.00;99.90;;;;;;4407673;32;20167;-65
2021/09/15 06:55:14;;;;;;;37.17;33.43;;;19.00;99.90;;;;;;4407463;32;20199;-66
2021/09/15 06:57:41;;;;;;;37.70;34.13;;;19.10;99.90;;;;;;4407699;32;20453;-65
2021/09/15 07:00:12;;;;;;;37.27;33.70;;;19.20;99.90;;;;;;4408031;32;20170;-65
2021/09/15 07:02:39;;;;;;;38.13;34.17;;;19.20;99.90;;;;;;4407634;32;20178;-65
2021/09/15 07:05:07;;;;;;;39.60;35.87;;;19.40;99.90;;;;;;4407505;32;20214;-65
2021/09/15 07:07:34;;;;;;;38.57;34.50;;;19.50;99.90;;;;;;4407362;32;20152;-67
2021/09/15 07:10:01;;;;;;;40.87;36.83;;;19.50;99.90;;;;;;4407573;32;20152;-65
2021/09/15 07:12:30;;;;;;;41.97;37.90;;;19.50;99.90;;;;;;4407986;32;20147;-67
2021/09/15 07:14:59;;;;;;;36.87;33.57;;;19.50;99.90;;;;;;4408017;32;20151;-64
2021/09/15 07:17:27;;;;;;;36.83;33.33;;;19.50;99.90;;;;;;4407379;32;20152;-65
2021/09/15 07:19:54;;;;;;;36.97;33.63;;;19.50;99.90;;;;;;4407363;32;20190;-65
2021/09/15 07:22:20;;;;;;;41.10;37.70;;;19.60;99.90;;;;;;4407428;32;20155;-66
2021/09/15 07:24:47;;;;;;;37.43;34.07;;;19.60;99.90;;;;;;4407395;32;20592;-64
2021/09/15 07:27:14;;;;;;;38.50;34.97;;;19.70;99.90;;;;;;4406957;32;20149;-65
2021/09/15 07:29:41;;;;;;;38.30;35.00;;;19.90;99.90;;;;;;4407543;32;20190;-66
2021/09/15 07:32:08;;;;;;;37.77;34.20;;;19.90;99.90;;;;;;4407190;32;20169;-65
2021/09/15 07:34:39;;;;;;;37.43;33.83;;;20.00;99.90;;;;;;4408130;32;20151;-65
2021/09/15 07:37:06;;;;;;;43.27;39.30;;;20.00;99.90;;;;;;4399978;32;20159;-65
2021/09/15 07:39:33;;;;;;;41.93;38.23;;;19.90;99.90;;;;;;4398076;32;20167;-66
2021/09/15 07:42:02;;;;;;;41.53;37.63;;;19.90;99.90;;;;;;4400649;32;20234;-66
2021/09/15 07:44:28;;;;;;;44.33;40.37;;;19.80;99.90;;;;;;4407140;32;20152;-65
2021/09/15 07:46:55;;;;;;;47.03;42.03;;;19.70;99.90;;;;;;4402310;32;20584;-65
2021/09/15 07:49:22;;;;;;;47.57;42.67;;;19.70;99.90;;;;;;4398368;32;20198;-66
2021/09/15 07:51:50;;;;;;;52.53;47.10;;;19.70;99.90;;;;;;4399967;32;20176;-65
2021/09/15 07:54:23;;;;;;;48.07;43.07;;;19.70;99.90;;;;;;4399410;32;20178;-65
2021/09/15 07:56:50;;;;;;;51.30;45.77;;;19.70;99.90;;;;;;4390609;32;20507;-65
2021/09/15 07:59:17;;;;;;;56.47;50.40;;;19.70;99.90;;;;;;4391328;32;20152;-65
2021/09/15 08:01:44;;;;;;;64.43;52.67;;;19.60;99.90;;;;;;4392337;32;20630;-65
2021/09/15 08:04:11;;;;;;;64.40;52.23;;;19.50;99.90;;;;;;4391782;32;20156;-68
2021/09/15 08:06:38;;;;;;;60.93;51.73;;;19.50;99.90;;;;;;4391079;32;20216;-66
2021/09/15 08:09:06;;;;;;;67.43;50.80;;;19.50;99.90;;;;;;4392955;32;20208;-65
2021/09/15 08:11:35;;;;;;;64.47;52.83;;;19.60;99.90;;;;;;4392210;32;20163;-66
2021/09/15 08:14:04;;;;;;;62.83;52.13;;;19.70;99.90;;;;;;4392149;32;20198;-66
2021/09/15 08:16:34;;;;;;;65.90;52.23;;;19.80;99.90;;;;;;4391502;32;20208;-66
2021/09/15 08:19:05;;;;;;;64.90;51.00;;;20.00;99.90;;;;;;4391453;32;20573;-67
2021/09/15 08:21:33;;;;;;;62.90;51.27;;;20.20;99.90;;;;;;4391647;32;20163;-66
2021/09/15 08:24:00;;;;;;;57.30;48.90;;;20.20;99.90;;;;;;4391417;32;20171;-64
2021/09/15 08:26:28;;;;;;;55.43;49.47;;;20.20;99.90;;;;;;4391202;32;20175;-65
2021/09/15 08:28:55;;;;;;;60.33;53.53;;;20.20;99.90;;;;;;4392230;32;20183;-68
2021/09/15 08:31:22;;;;;;;50.80;45.43;;;20.20;99.90;;;;;;4391094;32;20195;-67
2021/09/15 08:33:49;;;;;;;53.50;47.57;;;20.10;99.90;;;;;;4391068;32;20163;-66
2021/09/15 08:36:19;;;;;;;51.97;46.07;;;20.10;99.90;;;;;;4391504;32;20183;-65
2021/09/15 08:38:52;;;;;;;54.63;48.80;;;20.20;99.90;;;;;;4392797;32;20216;-66
2021/09/15 08:41:25;;;;;;;58.83;52.80;;;20.30;99.90;;;;;;4391187;32;20156;-68
2021/09/15 08:43:58;;;;;;;56.20;50.67;;;20.50;99.90;;;;;;4392653;32;20187;-66
2021/09/15 08:46:34;;;;;;;50.03;45.10;;;20.60;99.90;;;;;;4392655;32;20577;-66
2021/09/15 08:49:02;;;;;;;52.37;46.97;;;20.70;99.90;;;;;;4392027;32;20159;-66
2021/09/15 08:51:29;;;;;;;51.13;46.33;;;21.00;99.90;;;;;;4390609;32;20167;-66
2021/09/15 08:53:57;;;;;;;57.13;51.83;;;21.10;99.90;;;;;;4391217;32;20148;-66
2021/09/15 08:56:24;;;;;;;57.73;52.47;;;21.20;99.90;;;;;;4390957;32;20431;-67
2021/09/15 08:58:54;;;;;;;51.83;47.07;;;21.20;99.90;;;;;;4391608;32;20483;-66
2021/09/15 09:01:22;;;;;;;56.57;51.67;;;21.30;99.90;;;;;;4392339;32;20151;-66
2021/09/15 09:03:52;;;;;;;53.87;49.03;;;21.40;99.90;;;;;;4390967;32;20152;-67
2021/09/15 09:06:22;;;;;;;54.43;49.57;;;21.50;99.90;;;;;;4390842;32;20167;-66
2021/09/15 09:08:55;;;;;;;54.77;50.00;;;21.60;99.90;;;;;;4390506;32;20202;-67
2021/09/15 09:11:24;;;;;;;63.00;57.40;;;21.60;99.90;;;;;;4391115;32;20197;-66
2021/09/15 09:13:54;;;;;;;63.20;57.53;;;21.80;99.90;;;;;;4390319;32;20594;-66
2021/09/15 09:16:42;;;;;;;57.00;51.83;;;21.80;99.90;;;;;;4390711;32;20587;-66
2021/09/15 09:19:11;;;;;;;59.67;54.57;;;21.90;99.90;;;;;;4391725;32;20167;-68
2021/09/15 09:21:41;;;;;;;59.20;54.23;;;21.80;99.90;;;;;;4391948;32;20599;-66
2021/09/15 09:24:13;;;;;;;59.63;54.30;;;21.80;99.90;;;;;;4391847;32;20530;-67
2021/09/15 09:27:01;;;;;;;65.27;59.77;;;21.90;99.90;;;;;;4391097;32;20167;-66
2021/09/15 09:29:32;;;;;;;60.07;55.00;;;21.70;99.90;;;;;;4388101;32;20206;-66
2021/09/15 09:32:05;;;;;;;62.47;57.13;;;21.60;99.90;;;;;;4390526;32;20170;-66
2021/09/15 09:34:40;;;;;;;57.10;52.47;;;21.50;99.90;;;;;;4391044;32;20183;-66
2021/09/15 09:37:11;;;;;;;57.97;52.77;;;21.30;99.90;;;;;;4391345;32;20152;-69
2021/09/15 09:39:42;;;;;;;60.80;55.37;;;21.20;99.90;;;;;;4390517;32;20200;-65
2021/09/15 09:42:30;;;;;;;56.43;51.37;;;21.00;99.90;;;;;;4392113;32;20477;-66
2021/09/15 09:45:11;;;;;;;62.67;56.33;;;20.80;99.90;;;;;;4390752;32;20247;-66
2021/09/15 09:47:39;;;;;;;57.23;52.07;;;20.60;99.90;;;;;;4390575;32;20144;-66
2021/09/15 09:50:11;;;;;;;53.03;48.03;;;20.30;99.90;;;;;;4390301;32;20156;-66
2021/09/15 09:53:03;;;;;;;56.77;51.27;;;20.30;99.90;;;;;;4390269;32;20167;-66
2021/09/15 09:55:31;;;;;;;48.80;44.00;;;20.20;99.90;;;;;;4391579;32;20175;-68
2021/09/15 09:58:00;;;;;;;51.90;47.03;;;20.20;99.90;;;;;;4391725;32;20199;-66
2021/09/15 10:00:31;;;;;;;52.20;46.90;;;20.20;99.90;;;;;;4401970;32;20550;-65
2021/09/15 10:02:59;;;;;;;52.40;47.40;;;20.30;99.90;;;;;;4405687;32;20212;-66
2021/09/15 10:05:26;;;;;;;49.47;45.07;;;20.40;99.90;;;;;;4401019;32;20190;-68
2021/09/15 10:07:53;;;;;;;47.23;43.30;;;20.70;99.90;;;;;;4404553;32;20180;-66
2021/09/15 10:10:22;;;;;;;47.90;44.33;;;21.10;99.90;;;;;;4406748;32;20171;-70
2021/09/15 10:12:53;;;;;;;47.80;44.03;;;21.20;99.90;;;;;;4406328;32;20227;-66
2021/09/15 10:15:20;;;;;;;48.87;45.13;;;21.30;99.90;;;;;;4406614;32;20584;-66
2021/09/15 10:17:50;;;;;;;43.60;40.67;;;21.40;99.90;;;;;;4405818;32;20172;-66
2021/09/15 10:20:22;;;;;;;47.23;44.00;;;21.40;99.90;;;;;;4407052;32;20186;-64
2021/09/15 10:22:49;;;;;;;44.80;41.83;;;21.30;99.90;;;;;;4420835;32;20214;-66
2021/09/15 10:25:17;;;;;;;46.30;43.20;;;21.70;99.90;;;;;;4407647;32;20602;-66
2021/09/15 10:28:04;;;;;;;44.47;41.53;;;21.90;99.90;;;;;;4406851;32;20156;-66
2021/09/15 10:30:43;;;;;;;48.30;45.13;;;22.00;99.90;;;;;;4408164;32;20169;-67
2021/09/15 10:33:43;;;;;;;45.57;42.53;;;22.00;99.90;;;;;;4408243;32;20163;-67
2021/09/15 10:36:36;;;;;;;46.87;43.90;;;21.90;99.90;;;;;;4408089;32;20471;-66
2021/09/15 10:39:04;;;;;;;46.67;43.97;;;21.80;99.90;;;;;;4407893;32;20222;-65
2021/09/15 10:41:42;;;;;;;47.10;44.37;;;22.00;99.90;;;;;;4409191;32;20477;-66
2021/09/15 10:44:10;;;;;;;45.97;43.43;;;22.10;99.90;;;;;;4408144;32;20151;-69
2021/09/15 10:46:38;;;;;;;48.97;46.03;;;22.10;99.90;;;;;;4409509;32;20147;-66
2021/09/15 10:49:45;;;;;;;51.33;48.17;;;21.80;99.90;;;;;;4409726;32;20148;-66
2021/09/15 10:52:42;;;;;;;42.97;40.10;;;21.60;99.90;;;;;;4407587;32;20226;-67
2021/09/15 10:55:19;;;;;;;44.63;42.00;;;21.30;99.90;;;;;;4360311;32;20188;-65
2021/09/15 10:57:47;;;;;;;47.37;44.67;;;21.30;99.90;;;;;;4365679;32;20163;-66
2021/09/15 11:00:27;;;;;;;46.00;43.20;;;21.20;99.90;;;;;;4375632;32;20191;-66
2021/09/15 11:02:56;;;;;;;46.03;43.37;;;21.20;99.90;;;;;;4375689;32;20148;-67
2021/09/15 11:05:44;;;;;;;46.73;43.93;;;21.20;99.90;;;;;;4366300;32;20218;-66
2021/09/15 11:08:33;;;;;;;45.30;42.30;;;21.10;99.90;;;;;;4359902;32;20156;-66
2021/09/15 11:11:00;;;;;;;43.40;40.87;;;20.90;99.90;;;;;;4360649;32;20183;-68
2021/09/15 11:13:54;;;;;;;43.60;41.17;;;20.70;99.90;;;;;;4360346;33;20179;-66
2021/09/15 11:16:33;;;;;;;44.13;41.57;;;20.80;99.90;;;;;;4360759;32;20208;-66
2021/09/15 11:19:02;;;;;;;46.77;44.27;;;21.00;99.90;;;;;;4360952;32;20171;-68
2021/09/15 11:21:31;;;;;;;40.87;38.67;;;21.20;99.90;;;;;;4360685;32;20491;-67
2021/09/15 11:24:09;;;;;;;49.27;46.70;;;21.40;99.90;;;;;;4361338;32;20218;-66
2021/09/15 11:26:38;;;;;;;49.10;46.50;;;21.20;99.90;;;;;;4360306;32;20202;-66
2021/09/15 11:29:05;;;;;;;45.40;43.00;;;21.00;99.90;;;;;;4360022;33;20604;-66
2021/09/15 11:31:34;;;;;;;43.70;41.43;;;21.10;99.90;;;;;;4396956;32;20575;-69
2021/09/15 11:34:09;;;;;;;43.37;40.87;;;21.10;99.90;;;;;;4407316;32;20219;-66
2021/09/15 11:36:36;;;;;;;46.93;44.13;;;20.90;99.90;;;;;;4408342;32;20178;-68
2021/09/15 11:39:06;;;;;;;40.57;38.20;;;20.80;99.90;;;;;;4407180;32;20198;-67
2021/09/15 11:41:33;;;;;;;46.33;43.90;;;20.60;99.90;;;;;;4406455;32;20230;-66
2021/09/15 11:44:01;;;;;;;42.40;40.30;;;20.40;99.90;;;;;;4393487;32;20591;-66
2021/09/15 11:46:45;;;;;;;45.63;43.17;;;20.50;99.90;;;;;;4394768;32;20238;-66
2021/09/15 11:49:37;;;;;;;45.77;43.37;;;20.80;99.90;;;;;;4390173;32;20925;-66
2021/09/15 11:52:04;;;;;;;44.83;42.40;;;20.80;99.90;;;;;;4407345;32;21998;-65
2021/09/15 11:54:33;;;;;;;41.47;39.40;;;21.10;99.90;;;;;;4418163;32;20207;-66
2021/09/15 11:57:08;;;;;;;45.77;43.43;;;21.20;99.90;;;;;;4407118;32;20248;-66
2021/09/15 11:59:36;;;;;;;42.03;39.87;;;21.40;99.90;;;;;;4396408;32;20203;-68
2021/09/15 12:02:04;;;;;;;45.23;42.83;;;21.60;99.90;;;;;;4401125;32;20196;-65
2021/09/15 12:04:34;;;;;;;43.40;41.20;;;21.90;99.90;;;;;;4406892;32;20194;-66
2021/09/15 12:07:04;;;;;;;41.83;39.93;;;21.90;99.90;;;;;;4405095;32;20183;-66
2021/09/15 12:09:34;;;;;;;42.63;40.47;;;22.20;99.90;;;;;;4405911;32;20168;-66
2021/09/15 12:12:11;;;;;;;40.67;38.60;;;22.30;99.90;;;;;;4405734;32;20160;-66
2021/09/15 12:14:38;;;;;;;41.83;39.60;;;22.30;99.90;;;;;;4407050;32;20190;-66
2021/09/15 12:17:06;;;;;;;42.77;40.73;;;22.40;99.90;;;;;;4400976;32;20214;-67
2021/09/15 12:19:33;;;;;;;42.33;40.20;;;22.20;99.90;;;;;;4398005;32;20371;-66
2021/09/15 12:22:03;;;;;;;42.23;40.20;;;22.30;99.90;;;;;;4402157;32;20195;-65
2021/09/15 12:24:30;;;;;;;41.63;39.63;;;22.20;99.90;;;;;;4395364;32;20176;-67
2021/09/15 12:27:14;;;;;;;44.23;42.03;;;22.00;99.90;;;;;;4403257;32;20182;-67
2021/09/15 12:29:41;;;;;;;41.20;39.00;;;21.70;99.90;;;;;;4402502;32;20231;-67
2021/09/15 12:32:08;;;;;;;46.00;43.70;;;21.60;99.90;;;;;;4402351;32;20174;-68
2021/09/15 12:34:38;;;;;;;41.23;39.07;;;21.40;99.90;;;;;;4407067;32;20477;-70
2021/09/15 12:37:10;;;;;;;42.40;40.50;;;21.30;99.90;;;;;;4392435;32;20481;-67
2021/09/15 12:39:47;;;;;;;41.17;38.87;;;21.10;99.90;;;;;;4398319;32;20182;-66
2021/09/15 12:42:18;;;;;;;39.07;37.17;;;20.80;99.90;;;;;;4405370;32;20518;-69